Time;durP1;ratioP1;P1;durP2;ratioP2;P2;SDS_P1;SDS_P2;PMS_P1;PMS_P2;Temp;Humidity;BMP_temperature;BMP_pressure;BME280_temperature;BME280_humidity;BME280_pressure;Samples;Min_cycle;Max_cycle;Signal;HPM_P1;HPM_P2
2023/07/20 00:01:03;;;;;;;;;;;14.80;99.90;;;;;;5079567;28;20276;-81
2023/07/20 00:03:29;;;;;;;;;;;14.80;99.90;;;;;;5110934;28;19919;-82
2023/07/20 00:05:56;;;;;;;;;;;14.80;99.90;;;;;;5111387;28;19927;-81
2023/07/20 00:08:21;;;;;;;;;;;14.80;99.90;;;;;;5078015;28;19927;-82
2023/07/20 00:10:47;;;;;;;;;;;14.80;99.90;;;;;;5094624;28;20048;-76
2023/07/20 00:13:13;;;;;;;;;;;14.80;99.90;;;;;;5077276;28;20337;-77
2023/07/20 00:15:38;;;;;;;;;;;14.80;99.90;;;;;;5110391;28;19927;-79
2023/07/20 00:18:05;;;;;;;;;;;14.80;99.90;;;;;;5111454;28;20288;-81
2023/07/20 00:20:30;;;;;;;;;;;14.80;99.90;;;;;;5094378;28;19968;-77
2023/07/20 00:22:57;;;;;;;;;;;14.90;99.90;;;;;;5094636;28;19928;-80
2023/07/20 00:25:23;;;;;;;;;;;14.80;99.90;;;;;;5111202;28;20019;-78
2023/07/20 00:27:49;;;;;;;;;;;14.70;99.90;;;;;;5111303;28;20018;-76
2023/07/20 00:30:15;;;;;;;;;;;14.70;99.90;;;;;;5111434;28;20395;-77
2023/07/20 00:32:42;;;;;;;;;;;14.70;99.90;;;;;;5111034;28;20254;-78
2023/07/20 00:35:07;;;;;;;;;;;14.70;99.90;;;;;;5094368;28;20364;-81
2023/07/20 00:37:33;;;;;;;;;;;14.60;99.90;;;;;;5111095;28;19931;-79
2023/07/20 00:39:59;;;;;;;;;;;14.60;99.90;;;;;;5094633;28;19923;-81
2023/07/20 00:42:26;;;;;;;;;;;14.50;99.90;;;;;;5095386;28;19920;-82
2023/07/20 00:44:51;;;;;;;;;;;14.40;99.90;;;;;;5094109;28;19953;-78
2023/07/20 00:47:17;;;;;;;;;;;14.40;99.90;;;;;;5110979;28;19931;-77
2023/07/20 00:49:43;;;;;;;;;;;14.30;99.90;;;;;;5110521;28;19920;-81
2023/07/20 00:52:10;;;;;;;;;;;14.20;99.90;;;;;;5094710;28;19920;-82
2023/07/20 00:54:36;;;;;;;;;;;14.10;99.90;;;;;;5094456;28;19963;-80
2023/07/20 00:57:06;;;;;;;;;;;14.10;99.90;;;;;;5113756;28;19920;-78
2023/07/20 00:59:40;;;;;;;;;;;14.00;99.90;;;;;;5110585;28;20426;-79
2023/07/20 01:02:06;;;;;;;;;;;13.90;99.90;;;;;;5111112;28;19927;-84
2023/07/20 01:04:32;;;;;;;;;;;13.80;99.90;;;;;;5111204;28;19935;-78
2023/07/20 01:07:06;;;;;;;;;;;13.80;99.90;;;;;;5111326;28;19920;-80
2023/07/20 01:09:37;;;;;;;;;;;13.70;99.90;;;;;;5110813;28;19923;-78
2023/07/20 01:12:07;;;;;;;;;;;13.70;99.90;;;;;;5111076;28;19923;-83
2023/07/20 01:14:34;;;;;;;;;;;13.60;99.90;;;;;;5111062;28;19919;-81
2023/07/20 01:16:59;;;;;;;;;;;13.60;99.90;;;;;;5112278;28;19927;-77
2023/07/20 01:19:25;;;;;;;;;;;13.50;99.90;;;;;;5094719;28;19923;-78
2023/07/20 01:22:16;;;;;;;;;;;13.50;99.90;;;;;;5093712;28;20342;-79
2023/07/20 01:24:50;;;;;;;;;;;13.50;99.90;;;;;;5110355;28;20068;-78
2023/07/20 01:27:25;;;;;;;;;;;13.40;99.90;;;;;;5097482;28;19927;-80
2023/07/20 01:29:51;;;;;;;;;;;13.30;99.90;;;;;;5097488;28;19923;-77
2023/07/20 01:32:19;;;;;;;;;;;13.30;99.90;;;;;;5114784;28;19928;-80
2023/07/20 01:34:46;;;;;;;;;;;13.30;99.90;;;;;;5097306;28;20284;-78
2023/07/20 01:37:12;;;;;;;;;;;13.30;99.90;;;;;;5114477;28;19923;-80
2023/07/20 01:39:38;;;;;;;;;;;13.20;99.90;;;;;;5097326;28;19946;-82
2023/07/20 01:42:06;;;;;;;;;;;13.10;99.90;;;;;;5097229;28;19924;-78
2023/07/20 01:44:32;;;;;;;;;;;13.10;99.90;;;;;;5097961;28;19939;-82
2023/07/20 01:46:57;;;;;;;;;;;13.00;99.90;;;;;;5114338;28;19923;-78
2023/07/20 01:49:24;;;;;;;;;;;13.00;99.90;;;;;;5098321;28;20388;-80
2023/07/20 01:51:50;;;;;;;;;;;13.10;99.90;;;;;;5114563;28;19923;-77
2023/07/20 01:54:15;;;;;;;;;;;13.00;99.90;;;;;;5097277;28;19920;-80
2023/07/20 01:56:41;;;;;;;;;;;13.00;99.90;;;;;;5113818;28;19967;-80
2023/07/20 01:59:06;;;;;;;;;;;13.00;99.90;;;;;;5113506;28;19943;-78
2023/07/20 02:01:32;;;;;;;;;;;12.90;99.90;;;;;;5113893;28;19923;-78
2023/07/20 02:03:58;;;;;;;;;;;12.90;99.90;;;;;;5113850;28;19931;-81
2023/07/20 02:06:25;;;;;;;;;;;12.80;99.90;;;;;;5097216;28;19924;-78
2023/07/20 02:08:50;;;;;;;;;;;12.80;99.90;;;;;;5113773;28;19967;-79
2023/07/20 02:11:16;;;;;;;;;;;12.70;99.90;;;;;;5113950;28;20012;-81
2023/07/20 02:13:41;;;;;;;;;;;12.70;99.90;;;;;;5113345;28;19989;-84
2023/07/20 02:16:07;;;;;;;;;;;12.70;99.90;;;;;;5114639;28;19920;-79
2023/07/20 02:18:35;;;;;;;;;;;12.70;99.90;;;;;;5096386;28;19967;-79
2023/07/20 02:21:00;;;;;;;;;;;12.60;99.90;;;;;;5096221;28;19927;-80
2023/07/20 02:23:26;;;;;;;;;;;12.60;99.90;;;;;;5113376;28;19923;-81
2023/07/20 02:25:52;;;;;;;;;;;12.50;99.90;;;;;;5113398;28;19970;-79
2023/07/20 02:28:18;;;;;;;;;;;12.50;99.90;;;;;;5113927;28;20256;-77
2023/07/20 02:30:44;;;;;;;;;;;12.40;99.90;;;;;;5096294;28;20002;-76
2023/07/20 02:33:14;;;;;;;;;;;12.40;99.90;;;;;;5115100;28;19919;-81
2023/07/20 02:35:40;;;;;;;;;;;12.40;99.90;;;;;;5113614;28;19927;-78
2023/07/20 02:38:06;;;;;;;;;;;12.30;99.90;;;;;;5112778;28;19977;-78
2023/07/20 02:40:35;;;;;;;;;;;12.30;99.90;;;;;;5113082;28;19985;-76
2023/07/20 02:43:01;;;;;;;;;;;12.30;99.90;;;;;;5112518;28;20377;-78
2023/07/20 02:45:26;;;;;;;;;;;12.30;99.90;;;;;;5095892;28;19924;-80
2023/07/20 02:47:52;;;;;;;;;;;12.30;99.90;;;;;;5112456;28;20015;-82
2023/07/20 02:50:17;;;;;;;;;;;12.30;99.90;;;;;;5092175;28;20381;-80
2023/07/20 02:52:50;;;;;;;;;;;12.30;99.90;;;;;;5092902;28;20339;-78
2023/07/20 02:55:15;;;;;;;;;;;12.30;99.90;;;;;;5092664;28;19963;-78
2023/07/20 02:57:41;;;;;;;;;;;12.30;99.90;;;;;;5092789;28;19970;-78
2023/07/20 03:00:07;;;;;;;;;;;12.30;99.90;;;;;;5092089;28;19955;-79
2023/07/20 03:02:33;;;;;;;;;;;12.20;99.90;;;;;;5093376;28;19926;-80
2023/07/20 03:04:59;;;;;;;;;;;12.20;99.90;;;;;;5074891;28;19924;-81
2023/07/20 03:07:31;;;;;;;;;;;12.10;99.90;;;;;;5091709;28;19974;-77
2023/07/20 03:09:57;;;;;;;;;;;12.10;99.90;;;;;;5093259;28;19990;-80
2023/07/20 03:12:24;;;;;;;;;;;12.10;99.90;;;;;;5092166;28;19920;-79
2023/07/20 03:14:49;;;;;;;;;;;12.00;99.90;;;;;;5058258;28;19924;-82
2023/07/20 03:17:15;;;;;;;;;;;12.00;99.90;;;;;;5091998;28;19924;-80
2023/07/20 03:19:41;;;;;;;;;;;11.90;99.90;;;;;;5092449;28;19931;-78
2023/07/20 03:22:08;;;;;;;;;;;11.90;99.90;;;;;;5091514;28;19924;-81
2023/07/20 03:24:35;;;;;;;;;;;11.80;99.90;;;;;;5091861;28;19928;-80
2023/07/20 03:27:00;;;;;;;;;;;11.80;99.90;;;;;;5074197;28;19929;-80
2023/07/20 03:29:33;;;;;;;;;;;11.80;99.90;;;;;;5074077;28;20413;-78
2023/07/20 03:31:59;;;;;;;;;;;11.70;99.90;;;;;;5058020;28;19924;-79
2023/07/20 03:34:27;;;;;;;;;;;11.70;99.90;;;;;;5090648;28;20077;-80
2023/07/20 03:36:53;;;;;;;;;;;11.80;99.90;;;;;;5074033;28;19926;-79
2023/07/20 03:39:19;;;;;;;;;;;11.70;99.90;;;;;;5057909;28;19920;-78
2023/07/20 03:41:44;;;;;;;;;;;11.70;99.90;;;;;;5074826;28;19982;-79
2023/07/20 03:44:10;;;;;;;;;;;11.70;99.90;;;;;;5085782;28;19931;-79
2023/07/20 03:46:36;;;;;;;;;;;11.70;99.90;;;;;;5094930;28;19930;-80
2023/07/20 03:49:01;;;;;;;;;;;11.60;99.90;;;;;;5095086;28;20011;-80
2023/07/20 03:51:27;;;;;;;;;;;11.60;99.90;;;;;;5095292;28;19928;-80
2023/07/20 03:53:53;;;;;;;;;;;11.60;99.90;;;;;;5112231;28;19923;-81
2023/07/20 03:56:18;;;;;;;;;;;11.50;99.90;;;;;;5078146;28;20002;-78
2023/07/20 03:58:47;;;;;;;;;;;11.50;99.90;;;;;;5113012;28;19965;-81
2023/07/20 04:01:14;;;;;;;;;;;11.60;99.90;;;;;;5111192;28;20400;-79
2023/07/20 04:03:39;;;;;;;;;;;11.60;99.90;;;;;;5111874;28;19920;-81
2023/07/20 04:06:05;;;;;;;;;;;11.60;99.90;;;;;;5113527;28;19920;-80
2023/07/20 04:08:30;;;;;;;;;;;11.60;99.90;;;;;;5112704;28;20436;-81
2023/07/20 04:10:56;;;;;;;;;;;11.60;99.90;;;;;;5095165;28;19923;-76
2023/07/20 04:13:28;;;;;;;;;;;11.70;99.90;;;;;;5095987;28;20026;-77
2023/07/20 04:15:55;;;;;;;;;;;11.80;99.90;;;;;;5111549;28;20277;-79
2023/07/20 04:18:21;;;;;;;;;;;11.80;99.90;;;;;;5111181;28;20322;-80
2023/07/20 04:20:46;;;;;;;;;;;11.90;99.90;;;;;;5094062;28;19923;-79
2023/07/20 04:23:13;;;;;;;;;;;12.00;99.90;;;;;;5111256;28;19975;-80
2023/07/20 04:25:39;;;;;;;;;;;12.10;99.90;;;;;;5110173;28;19947;-82
2023/07/20 04:28:08;;;;;;;;;;;12.20;99.90;;;;;;5111009;28;20322;-79
2023/07/20 04:30:36;;;;;;;;;;;12.40;99.90;;;;;;5111103;28;19924;-79
2023/07/20 04:33:01;;;;;;;;;;;12.50;99.90;;;;;;5093648;28;19927;-79
2023/07/20 04:35:45;;;;;;;;;;;12.60;99.90;;;;;;5111052;28;19919;-78
2023/07/20 04:38:11;;;;;;;;;;;12.70;99.90;;;;;;5110911;28;19924;-79
2023/07/20 04:40:36;;;;;;;;;;;12.70;99.90;;;;;;5111145;28;19979;-82
2023/07/20 04:43:03;;;;;;;;;;;12.80;99.90;;;;;;5111010;28;20284;-81
2023/07/20 04:45:30;;;;;;;;;;;13.00;99.90;;;;;;5111110;28;20562;-79
2023/07/20 04:47:56;;;;;;;;;;;13.00;99.90;;;;;;5077065;28;20377;-82
2023/07/20 04:50:23;;;;;;;;;;;13.10;99.90;;;;;;5094063;28;19931;-79
2023/07/20 04:52:49;;;;;;;;;;;13.20;99.90;;;;;;5094347;28;20285;-80
2023/07/20 04:55:15;;;;;;;;;;;13.30;99.90;;;;;;5093981;28;19931;-80
2023/07/20 04:57:40;;;;;;;;;;;13.30;99.90;;;;;;5094275;28;20270;-82
2023/07/20 05:00:09;;;;;;;;;;;13.50;99.90;;;;;;5094010;28;19927;-80
2023/07/20 05:02:35;;;;;;;;;;;13.60;99.90;;;;;;5115127;28;19924;-81
2023/07/20 05:05:01;;;;;;;;;;;13.70;99.90;;;;;;5114249;28;19954;-81
2023/07/20 05:07:27;;;;;;;;;;;13.80;99.90;;;;;;5115433;28;19924;-80
2023/07/20 05:09:52;;;;;;;;;;;13.80;99.90;;;;;;5097761;28;19924;-79
2023/07/20 05:12:18;;;;;;;;;;;13.90;99.90;;;;;;5098238;28;19927;-79
2023/07/20 05:14:44;;;;;;;;;;;14.00;99.90;;;;;;5115371;28;19978;-82
2023/07/20 05:17:09;;;;;;;;;;;14.10;99.90;;;;;;5114328;28;20361;-80
2023/07/20 05:19:35;;;;;;;;;;;14.10;99.90;;;;;;5114792;28;19927;-80
2023/07/20 05:22:05;;;;;;;;;;;14.10;99.90;;;;;;5097045;28;20070;-78
2023/07/20 05:24:31;;;;;;;;;;;14.10;99.90;;;;;;5114921;28;19923;-80
2023/07/20 05:26:57;;;;;;;;;;;14.20;99.90;;;;;;5114639;28;19920;-80
2023/07/20 05:29:26;;;;;;;;;;;14.20;99.90;;;;;;5116086;28;19924;-80
2023/07/20 05:31:52;;;;;;;;;;;14.20;99.90;;;;;;5114655;28;19923;-76
2023/07/20 05:34:18;;;;;;;;;;;14.20;99.90;;;;;;5097185;28;19926;-79
2023/07/20 05:36:43;;;;;;;;;;;14.30;99.90;;;;;;5097697;28;19919;-81
2023/07/20 05:39:09;;;;;;;;;;;14.30;99.90;;;;;;5097005;28;19972;-79
2023/07/20 05:41:34;;;;;;;;;;;14.40;99.90;;;;;;5097332;28;19985;-79
2023/07/20 05:44:00;;;;;;;;;;;14.40;99.90;;;;;;5079707;28;19935;-78
2023/07/20 05:46:25;;;;;;;;;;;14.50;99.90;;;;;;5113849;28;19924;-79
2023/07/20 05:48:52;;;;;;;;;;;14.50;99.90;;;;;;5114041;28;19935;-82
2023/07/20 05:51:28;;;;;;;;;;;14.60;99.90;;;;;;5094968;28;19920;-79
2023/07/20 05:53:53;;;;;;;;;;;14.70;99.90;;;;;;5093934;28;19920;-78
2023/07/20 05:56:20;;;;;;;;;;;14.70;99.90;;;;;;5094207;28;20297;-81
2023/07/20 05:58:46;;;;;;;;;;;14.80;99.90;;;;;;5098324;28;19963;-79
2023/07/20 06:01:11;;;;;;;;;;;14.80;99.90;;;;;;5079415;28;20278;-80
2023/07/20 06:03:43;;;;;;;;;;;14.90;99.90;;;;;;5094562;28;19927;-80
2023/07/20 06:06:11;;;;;;;;;;;15.00;99.90;;;;;;5093256;28;19924;-80
2023/07/20 06:08:37;;;;;;;;;;;15.10;99.90;;;;;;5093583;28;19920;-79
2023/07/20 06:11:03;;;;;;;;;;;15.20;99.90;;;;;;5092990;28;19989;-79
2023/07/20 06:13:29;;;;;;;;;;;15.30;99.90;;;;;;5093066;28;20564;-78
2023/07/20 06:15:55;;;;;;;;;;;15.40;99.90;;;;;;5093508;28;19982;-81
2023/07/20 06:18:22;;;;;;;;;;;15.40;99.90;;;;;;5076450;28;19974;-78
2023/07/20 06:20:51;;;;;;;;;;;15.50;99.90;;;;;;5076508;28;19928;-82
2023/07/20 06:23:19;;;;;;;;;;;15.60;99.90;;;;;;5095271;28;20343;-83
2023/07/20 06:25:46;;;;;;;;;;;15.60;99.90;;;;;;5094360;28;19928;-81
2023/07/20 06:28:15;;;;;;;;;;;15.70;99.90;;;;;;5094366;28;20390;-80
2023/07/20 06:30:40;;;;;;;;;;;15.80;99.90;;;;;;5076617;28;19924;-82
2023/07/20 06:33:12;;;;;;;;;;;15.80;99.90;;;;;;5106528;28;19932;-79
2023/07/20 06:35:37;;;;;;;;;;;15.90;99.90;;;;;;5096936;28;20256;-81
2023/07/20 06:38:03;;;;;;;;;;;15.90;99.90;;;;;;5112921;28;20364;-84
2023/07/20 06:40:30;;;;;;;;;;;16.00;99.90;;;;;;5114310;28;19931;-82
2023/07/20 06:42:55;;;;;;;;;;;16.10;99.90;;;;;;5113597;28;19919;-79
2023/07/20 06:45:22;;;;;;;;;;;16.10;99.90;;;;;;5112849;28;19928;-77
2023/07/20 06:47:48;;;;;;;;;;;16.20;99.90;;;;;;5113134;28;19923;-80
2023/07/20 06:50:14;;;;;;;;;;;16.40;99.90;;;;;;5095371;28;20288;-80
2023/07/20 06:52:40;;;;;;;;;;;16.50;99.90;;;;;;5113933;28;20292;-78
2023/07/20 06:55:06;;;;;;;;;;;16.80;99.90;;;;;;5112740;28;19931;-81
2023/07/20 06:57:32;;;;;;;;;;;16.90;99.90;;;;;;5113259;28;20327;-83
2023/07/20 06:59:58;;;;;;;;;;;17.10;99.90;;;;;;5095703;28;19973;-80
2023/07/20 07:02:23;;;;;;;;;;;17.30;99.90;;;;;;5113053;28;19969;-78
2023/07/20 07:04:49;;;;;;;;;;;17.40;99.90;;;;;;5113493;28;19930;-79
2023/07/20 07:07:14;;;;;;;;;;;17.40;99.90;;;;;;5112400;28;20296;-81
2023/07/20 07:09:40;;;;;;;;;;;17.30;99.90;;;;;;5113022;28;19975;-86
2023/07/20 07:12:06;;;;;;;;;;;17.20;99.90;;;;;;5096557;28;19927;-84
2023/07/20 07:14:32;;;;;;;;;;;17.30;99.90;;;;;;5112789;28;20400;-80
2023/07/20 07:16:57;;;;;;;;;;;17.30;99.90;;;;;;5112650;28;19920;-83
2023/07/20 07:19:23;;;;;;;;;;;17.40;99.90;;;;;;5111552;28;19924;-85
2023/07/20 07:21:48;;;;;;;;;;;17.40;99.90;;;;;;5112812;28;19926;-82
2023/07/20 07:24:14;;;;;;;;;;;17.40;99.90;;;;;;5095028;28;19946;-84
2023/07/20 07:26:43;;;;;;;;;;;17.50;99.90;;;;;;5112733;28;19932;-81
2023/07/20 07:29:09;;;;;;;;;;;17.70;99.90;;;;;;5102942;28;19927;-78
2023/07/20 07:31:38;;;;;;;;;;;17.90;99.90;;;;;;5093957;28;19928;-79
2023/07/20 07:34:05;;;;;;;;;;;18.10;99.90;;;;;;5074945;28;19926;-79
2023/07/20 07:36:34;;;;;;;;;;;18.30;99.90;;;;;;5092590;28;20333;-80
2023/07/20 07:39:00;;;;;;;;;;;18.30;99.90;;;;;;5076222;28;20379;-83
2023/07/20 07:41:25;;;;;;;;;;;18.20;99.90;;;;;;5092881;28;20011;-77
2023/07/20 07:43:51;;;;;;;;;;;18.00;99.90;;;;;;5075550;28;19924;-82
2023/07/20 07:46:17;;;;;;;;;;;17.70;99.90;;;;;;5091796;28;19920;-84
2023/07/20 07:48:54;;;;;;;;;;;17.50;99.90;;;;;;5092215;28;19935;-80
2023/07/20 07:51:29;;;;;;;;;;;17.40;99.90;;;;;;5113533;28;19931;-83
2023/07/20 07:53:55;;;;;;;;;;;17.30;99.90;;;;;;5112657;28;19988;-79
2023/07/20 07:56:22;;;;;;;;;;;17.10;99.90;;;;;;5112104;28;20388;-78
2023/07/20 07:58:51;;;;;;;;;;;17.10;99.90;;;;;;5113100;28;19930;-79
2023/07/20 08:01:18;;;;;;;;;;;17.10;99.90;;;;;;5111974;28;19920;-79
2023/07/20 08:03:47;;;;;;;;;;;17.20;99.90;;;;;;5112438;28;19920;-81
2023/07/20 08:06:15;;;;;;;;;;;17.40;99.90;;;;;;5112193;28;19927;-79
2023/07/20 08:08:42;;;;;;;;;;;17.70;99.90;;;;;;5113726;28;19966;-81
2023/07/20 08:11:07;;;;;;;;;;;18.00;99.90;;;;;;5112231;28;19920;-85
2023/07/20 08:13:33;;;;;;;;;;;18.30;99.90;;;;;;5095932;28;19926;-80
2023/07/20 08:15:59;;;;;;;;;;;18.40;99.90;;;;;;5094895;28;20289;-85
2023/07/20 08:18:24;;;;;;;;;;;18.50;99.90;;;;;;5111297;28;19920;-81
2023/07/20 08:20:50;;;;;;;;;;;18.70;99.90;;;;;;5112095;28;19962;-79
2023/07/20 08:23:23;;;;;;;;;;;18.80;99.90;;;;;;5111939;28;19943;-78
2023/07/20 08:25:48;;;;;;;;;;;18.90;99.90;;;;;;5112046;28;19923;-82
2023/07/20 08:28:14;;;;;;;;;;;19.00;99.90;;;;;;5111381;28;19976;-83
2023/07/20 08:30:41;;;;;;;;;;;19.20;99.90;;;;;;5111737;28;19920;-79
2023/07/20 08:33:07;;;;;;;;;;;19.20;99.90;;;;;;5111702;28;19971;-77
2023/07/20 08:35:33;;;;;;;;;;;19.10;99.90;;;;;;5113118;28;19924;-83
2023/07/20 08:37:59;;;;;;;;;;;18.80;99.90;;;;;;5099841;28;19923;-78
2023/07/20 08:40:24;;;;;;;;;;;18.60;99.90;;;;;;5115876;28;19926;-82
2023/07/20 08:42:50;;;;;;;;;;;18.80;99.90;;;;;;5116148;28;19924;-82
2023/07/20 08:45:16;;;;;;;;;;;19.00;99.90;;;;;;5098306;28;19931;-80
2023/07/20 08:47:44;;;;;;;;;;;19.20;99.90;;;;;;5116210;28;20144;-84
2023/07/20 08:50:10;;;;;;;;;;;19.20;99.90;;;;;;5099040;28;19924;-81
2023/07/20 08:52:42;;;;;;;;;;;19.40;99.90;;;;;;5115014;28;19924;-81
2023/07/20 08:55:13;;;;;;;;;;;19.40;99.90;;;;;;5115952;28;20019;-83
2023/07/20 08:57:41;;;;;;;;;;;19.10;99.90;;;;;;5116158;28;19967;-81
2023/07/20 09:00:12;;;;;;;;;;;18.90;99.90;;;;;;5116724;28;20401;-77
2023/07/20 09:02:40;;;;;;;;;;;19.00;99.90;;;;;;5114846;28;19923;-82
2023/07/20 09:05:14;;;;;;;;;;;19.10;99.90;;;;;;5116627;28;19938;-77
2023/07/20 09:07:46;;;;;;;;;;;19.20;99.90;;;;;;5084039;28;19972;-78
2023/07/20 09:10:12;;;;;;;;;;;19.30;99.90;;;;;;5115412;28;19924;-85
2023/07/20 09:12:38;;;;;;;;;;;19.30;99.90;;;;;;5080579;28;19923;-83
2023/07/20 09:15:04;;;;;;;;;;;19.10;99.90;;;;;;5115167;28;19920;-81
2023/07/20 09:17:37;;;;;;;;;;;19.00;99.90;;;;;;5098475;28;19924;-80
2023/07/20 09:20:10;;;;;;;;;;;19.10;99.90;;;;;;5114895;28;19981;-81
2023/07/20 09:22:39;;;;;;;;;;;19.40;99.90;;;;;;5095530;28;19920;-81
2023/07/20 09:25:08;;;;;;;;;;;19.80;99.90;;;;;;5095192;28;19928;-76
2023/07/20 09:27:37;;;;;;;;;;;20.10;99.90;;;;;;5095050;28;19964;-77
2023/07/20 09:30:03;;;;;;;;;;;20.10;99.90;;;;;;5096292;28;19924;-79
2023/07/20 09:32:29;;;;;;;;;;;19.90;99.90;;;;;;5098088;28;19924;-81
2023/07/20 09:34:55;;;;;;;;;;;19.50;99.90;;;;;;5079199;28;19935;-82
2023/07/20 09:37:24;;;;;;;;;;;19.10;99.90;;;;;;5094657;28;19924;-83
2023/07/20 09:39:51;;;;;;;;;;;18.90;99.90;;;;;;5078237;28;20703;-78
2023/07/20 09:42:17;;;;;;;;;;;19.00;99.90;;;;;;5061710;28;19920;-81
2023/07/20 09:44:43;;;;;;;;;;;19.30;99.90;;;;;;5094961;28;19932;-79
2023/07/20 09:47:09;;;;;;;;;;;19.70;99.90;;;;;;5078856;28;19920;-81
2023/07/20 09:49:43;;;;;;;;;;;20.10;99.90;;;;;;5099424;28;20408;-79
2023/07/20 09:52:09;;;;;;;;;;;20.20;99.90;;;;;;5114602;28;20004;-83
2023/07/20 09:54:37;;;;;;;;;;;19.80;99.90;;;;;;5097401;28;19930;-82
2023/07/20 09:57:03;;;;;;;;;;;19.40;99.90;;;;;;5114693;28;19923;-77
2023/07/20 09:59:28;;;;;;;;;;;19.10;99.90;;;;;;5097436;28;19997;-79
2023/07/20 10:01:55;;;;;;;;;;;19.00;99.90;;;;;;5114824;28;20015;-83
2023/07/20 10:04:21;;;;;;;;;;;19.10;99.90;;;;;;5114605;28;19997;-81
2023/07/20 10:06:47;;;;;;;;;;;19.30;99.90;;;;;;5114940;28;19977;-80
2023/07/20 10:09:15;;;;;;;;;;;19.70;99.90;;;;;;5097089;28;19973;-79
2023/07/20 10:11:43;;;;;;;;;;;20.10;99.90;;;;;;5114632;28;19928;-82
2023/07/20 10:14:12;;;;;;;;;;;20.40;99.90;;;;;;5114423;28;20006;-77
2023/07/20 10:16:39;;;;;;;;;;;20.50;99.90;;;;;;5115099;28;19927;-82
2023/07/20 10:19:23;;;;;;;;;;;20.40;99.90;;;;;;5114000;28;19980;-84
2023/07/20 10:21:51;;;;;;;;;;;20.10;99.90;;;;;;5096773;28;19928;-77
2023/07/20 10:24:18;;;;;;;;;;;19.80;99.90;;;;;;5096581;28;19924;-81
2023/07/20 10:26:44;;;;;;;;;;;19.60;99.90;;;;;;5080308;28;19924;-79
2023/07/20 10:29:10;;;;;;;;;;;19.70;99.90;;;;;;5113912;28;19926;-79
2023/07/20 10:31:35;;;;;;;;;;;20.00;99.90;;;;;;5097254;28;19920;-82
2023/07/20 10:34:01;;;;;;;;;;;20.00;99.20;;;;;;5097081;28;20284;-81
2023/07/20 10:36:27;;;;;;;;;;;20.10;99.50;;;;;;5113481;28;19958;-82
2023/07/20 10:38:54;;;;;;;;;;;20.20;98.90;;;;;;5114240;28;20068;-80
2023/07/20 10:41:41;;;;;;;;;;;20.40;99.40;;;;;;5114644;28;19924;-78
2023/07/20 10:44:07;;;;;;;;;;;20.60;98.30;;;;;;5113878;28;19932;-85
2023/07/20 10:46:39;;;;;;;;;;;20.80;98.20;;;;;;5096570;28;19927;-77
2023/07/20 10:49:09;;;;;;;;;;;20.90;98.40;;;;;;5113527;28;19983;-79
2023/07/20 10:51:46;;;;;;;;;;;21.00;98.20;;;;;;5097073;28;20001;-80
2023/07/20 10:54:21;;;;;;;;;;;20.90;97.90;;;;;;5114328;28;19928;-78
2023/07/20 10:56:47;;;;;;;;;;;20.70;97.20;;;;;;5096721;28;19973;-82
2023/07/20 10:59:20;;;;;;;;;;;20.60;97.90;;;;;;5095907;28;19923;-80
2023/07/20 11:01:47;;;;;;;;;;;20.70;97.00;;;;;;5096034;28;20277;-81
2023/07/20 11:04:12;;;;;;;;;;;20.70;97.00;;;;;;5096366;28;19978;-80
2023/07/20 11:06:42;;;;;;;;;;;20.70;97.40;;;;;;5113373;28;19977;-83
2023/07/20 11:09:14;;;;;;;;;;;20.70;96.60;;;;;;5113101;28;19920;-82
2023/07/20 11:11:40;;;;;;;;;;;20.60;96.00;;;;;;5096459;28;20000;-77
2023/07/20 11:14:07;;;;;;;;;;;20.40;96.60;;;;;;5102755;28;19924;-76
2023/07/20 11:16:40;;;;;;;;;;;20.40;96.30;;;;;;5092442;28;19927;-82
2023/07/20 11:19:15;;;;;;;;;;;20.70;98.10;;;;;;5096160;28;20574;-79
2023/07/20 11:21:42;;;;;;;;;;;21.00;96.70;;;;;;5095307;28;19924;-75
2023/07/20 11:24:09;;;;;;;;;;;21.00;95.50;;;;;;5092276;28;19931;-83
2023/07/20 11:26:44;;;;;;;;;;;20.70;95.20;;;;;;5091809;28;19924;-82
2023/07/20 11:29:16;;;;;;;;;;;20.50;96.20;;;;;;5091939;28;19950;-79
2023/07/20 11:31:43;;;;;;;;;;;20.60;96.00;;;;;;5092146;28;19947;-78
2023/07/20 11:34:13;;;;;;;;;;;20.80;95.90;;;;;;5075147;28;19972;-82
2023/07/20 11:36:45;;;;;;;;;;;21.10;96.10;;;;;;5091915;28;20336;-80
2023/07/20 11:39:15;;;;;;;;;;;21.20;95.20;;;;;;5092653;28;19920;-80
2023/07/20 11:41:49;;;;;;;;;;;21.40;95.10;;;;;;5091955;28;20369;-80
2023/07/20 11:44:15;;;;;;;;;;;21.50;95.30;;;;;;5092498;28;19970;-77
2023/07/20 11:46:42;;;;;;;;;;;21.20;94.50;;;;;;5093090;28;19924;-84
2023/07/20 11:49:09;;;;;;;;;;;21.00;95.80;;;;;;5092957;28;20704;-83
2023/07/20 11:51:36;;;;;;;;;;;21.10;95.10;;;;;;5112520;28;19928;-82
2023/07/20 11:54:02;;;;;;;;;;;21.10;94.60;;;;;;5112725;28;19924;-82
2023/07/20 11:56:28;;;;;;;;;;;21.00;94.30;;;;;;5112560;28;19930;-81
2023/07/20 11:58:54;;;;;;;;;;;20.80;93.80;;;;;;5111660;28;20262;-84
2023/07/20 12:01:29;;;;;;;;;;;20.70;94.70;;;;;;5113723;28;19970;-83
2023/07/20 12:04:03;;;;;;;;;;;20.90;94.10;;;;;;5096822;28;20014;-84
2023/07/20 12:06:29;;;;;;;;;;;21.30;93.90;;;;;;5094997;28;19930;-84
2023/07/20 12:08:59;;;;;;;;;;;21.40;93.80;;;;;;5113259;28;20010;-79
2023/07/20 12:11:42;;;;;;;;;;;21.50;94.10;;;;;;5092618;28;19940;-82
2023/07/20 12:14:10;;;;;;;;;;;21.50;93.60;;;;;;5058206;28;19924;-80
2023/07/20 12:16:39;;;;;;;;;;;21.40;93.80;;;;;;5057953;28;19974;-81
2023/07/20 12:19:08;;;;;;;;;;;21.30;93.80;;;;;;5074670;28;19927;-79
2023/07/20 12:21:36;;;;;;;;;;;21.20;93.70;;;;;;5108648;28;19924;-83
2023/07/20 12:24:03;;;;;;;;;;;21.10;93.20;;;;;;5075471;28;19928;-83
2023/07/20 12:26:29;;;;;;;;;;;20.90;93.00;;;;;;5075091;28;19928;-81
2023/07/20 12:28:54;;;;;;;;;;;20.90;94.20;;;;;;5091561;28;19963;-82
2023/07/20 12:31:24;;;;;;;;;;;21.00;93.60;;;;;;5075063;28;19971;-84
2023/07/20 12:33:51;;;;;;;;;;;20.90;93.40;;;;;;5057912;28;19931;-83
2023/07/20 12:36:17;;;;;;;;;;;20.80;93.10;;;;;;5091582;28;19969;-82
2023/07/20 12:38:44;;;;;;;;;;;20.70;92.90;;;;;;5091658;28;19924;-80
2023/07/20 12:41:12;;;;;;;;;;;20.60;93.30;;;;;;5091723;28;19920;-78
2023/07/20 12:43:38;;;;;;;;;;;20.40;93.30;;;;;;5091462;28;20395;-82
2023/07/20 12:46:04;;;;;;;;;;;20.40;93.90;;;;;;5091991;28;20019;-81
2023/07/20 12:48:31;;;;;;;;;;;20.40;94.20;;;;;;5092698;28;19932;-80
2023/07/20 12:50:57;;;;;;;;;;;20.50;94.30;;;;;;5074192;28;20679;-78
2023/07/20 12:53:25;;;;;;;;;;;20.50;95.20;;;;;;5092201;28;19924;-85
2023/07/20 12:55:51;;;;;;;;;;;20.50;95.50;;;;;;5074701;28;19960;-77
2023/07/20 12:58:23;;;;;;;;;;;20.60;96.40;;;;;;5092007;28;19931;-80
2023/07/20 13:00:49;;;;;;;;;;;20.70;96.00;;;;;;5075070;28;20516;-81
2023/07/20 13:03:16;;;;;;;;;;;20.90;96.20;;;;;;5112141;28;20045;-84
2023/07/20 13:05:41;;;;;;;;;;;21.10;95.70;;;;;;5112626;28;19931;-81
2023/07/20 13:08:07;;;;;;;;;;;21.30;95.60;;;;;;5114406;28;19920;-78
2023/07/20 13:10:33;;;;;;;;;;;21.40;94.80;;;;;;5096469;28;19926;-79
2023/07/20 13:12:59;;;;;;;;;;;21.30;94.60;;;;;;5080501;28;19966;-79
2023/07/20 13:15:30;;;;;;;;;;;21.10;94.30;;;;;;5095588;28;20372;-85
2023/07/20 13:17:56;;;;;;;;;;;20.80;93.80;;;;;;5111219;28;19931;-81
2023/07/20 13:20:21;;;;;;;;;;;20.50;94.30;;;;;;5111863;28;19927;-82
2023/07/20 13:22:48;;;;;;;;;;;20.30;94.30;;;;;;5113968;27;19920;-82
2023/07/20 13:25:14;;;;;;;;;;;20.00;96.10;;;;;;5098074;28;19973;-81
2023/07/20 13:27:40;;;;;;;;;;;19.60;97.70;;;;;;5080381;28;20335;-79
2023/07/20 13:30:09;;;;;;;;;;;19.50;99.10;;;;;;5114665;28;19934;-80
2023/07/20 13:32:36;;;;;;;;;;;19.30;99.90;;;;;;5115070;28;20435;-78
2023/07/20 13:35:03;;;;;;;;;;;19.20;99.90;;;;;;5114200;28;19924;-76
2023/07/20 13:37:28;;;;;;;;;;;19.20;99.90;;;;;;5098539;28;20088;-79
2023/07/20 13:39:54;;;;;;;;;;;19.20;99.90;;;;;;5101360;28;19958;-79
2023/07/20 13:42:21;;;;;;;;;;;19.40;99.90;;;;;;5116207;28;19923;-79
2023/07/20 13:44:47;;;;;;;;;;;19.60;99.90;;;;;;5097903;28;19928;-81
2023/07/20 13:47:13;;;;;;;;;;;19.80;99.90;;;;;;5114430;28;19920;-79
2023/07/20 13:49:39;;;;;;;;;;;20.00;99.90;;;;;;5113344;28;19950;-79
2023/07/20 13:52:05;;;;;;;;;;;20.20;99.90;;;;;;5114444;28;19919;-82
2023/07/20 13:54:30;;;;;;;;;;;20.50;99.90;;;;;;5097387;28;20013;-82
2023/07/20 13:56:56;;;;;;;;;;;20.90;99.90;;;;;;5097305;28;19924;-78
2023/07/20 13:59:22;;;;;;;;;;;20.90;99.90;;;;;;5114146;28;19931;-78
2023/07/20 14:01:49;;;;;;;;;;;20.70;99.90;;;;;;5094720;28;19923;-78
2023/07/20 14:04:14;;;;;;;;;;;20.70;99.90;;;;;;5076644;28;20049;-80
2023/07/20 14:06:40;;;;;;;;;;;20.80;99.90;;;;;;5093520;28;19998;-78
2023/07/20 14:09:06;;;;;;;;;;;20.80;99.90;;;;;;5076983;28;19920;-81
2023/07/20 14:11:32;;;;;;;;;;;21.00;99.90;;;;;;5094309;28;20370;-84
2023/07/20 14:13:58;;;;;;;;;;;21.30;99.90;;;;;;5093358;28;19920;-77
2023/07/20 14:16:24;;;;;;;;;;;22.00;99.90;;;;;;5093344;28;20449;-80